Milwaukee (MKE/KMKE)

Information

Location
Milwaukee, WI
Local Time
21:28 / 9:28 pm
GMT Time
02:28 / 2:28 am
Gates
Unassigned
No FAA reported delays
METAR KMKE 280204Z 01004KT 7SM BKN005 OVC010 04/02 A2998 RMK AO2 T00390022
TAF KMKE 272320Z 2800/2906 08005KT P6SM OVC015 FM280300 03007KT P6SM SCT008 OVC012 FM281600 02010KT P6SM BKN020 FM281900 02010KT P6SM SCT040 FM282200 03009KT P6SM FEW140
  • No charts available